sensor_id;sensor_type;location;lat;lon;timestamp;temperature;humidity
25949;DHT22;13961;51.178;4.448;2024-01-30T00:01:22;11.10;99.90
25949;DHT22;13961;51.178;4.448;2024-01-30T00:03:48;11.20;99.90
25949;DHT22;13961;51.178;4.448;2024-01-30T00:06:14;11.10;99.90
25949;DHT22;13961;51.178;4.448;2024-01-30T00:08:39;11.20;99.90
25949;DHT22;13961;51.178;4.448;2024-01-30T00:11:05;11.30;99.90
25949;DHT22;13961;51.178;4.448;2024-01-30T00:13:32;11.30;99.90
25949;DHT22;13961;51.178;4.448;2024-01-30T00:15:58;11.30;99.90
25949;DHT22;13961;51.178;4.448;2024-01-30T00:18:24;11.20;99.90
25949;DHT22;13961;51.178;4.448;2024-01-30T00:20:49;11.30;99.90
25949;DHT22;13961;51.178;4.448;2024-01-30T00:23:15;11.30;99.90
25949;DHT22;13961;51.178;4.448;2024-01-30T00:25:40;11.30;99.90
25949;DHT22;13961;51.178;4.448;2024-01-30T00:28:06;11.40;99.90
25949;DHT22;13961;51.178;4.448;2024-01-30T00:30:32;11.40;99.90
25949;DHT22;13961;51.178;4.448;2024-01-30T00:32:57;11.40;99.90
25949;DHT22;13961;51.178;4.448;2024-01-30T00:35:23;11.50;99.90
25949;DHT22;13961;51.178;4.448;2024-01-30T00:37:49;11.40;99.90
25949;DHT22;13961;51.178;4.448;2024-01-30T00:40:14;11.40;99.90
25949;DHT22;13961;51.178;4.448;2024-01-30T00:42:44;11.40;99.90
25949;DHT22;13961;51.178;4.448;2024-01-30T00:45:16;11.40;99.90
25949;DHT22;13961;51.178;4.448;2024-01-30T00:47:43;11.30;99.90
25949;DHT22;13961;51.178;4.448;2024-01-30T00:50:09;11.30;99.90
25949;DHT22;13961;51.178;4.448;2024-01-30T00:52:35;11.30;99.90
25949;DHT22;13961;51.178;4.448;2024-01-30T00:55:01;11.40;99.90
25949;DHT22;13961;51.178;4.448;2024-01-30T00:57:26;11.50;99.90
25949;DHT22;13961;51.178;4.448;2024-01-30T00:59:52;11.50;99.90
25949;DHT22;13961;51.178;4.448;2024-01-30T01:02:18;11.50;99.90
25949;DHT22;13961;51.178;4.448;2024-01-30T01:04:44;11.40;99.90
25949;DHT22;13961;51.178;4.448;2024-01-30T01:07:10;11.40;99.90
25949;DHT22;13961;51.178;4.448;2024-01-30T01:09:36;11.40;99.90
25949;DHT22;13961;51.178;4.448;2024-01-30T01:12:03;11.40;99.90
25949;DHT22;13961;51.178;4.448;2024-01-30T01:14:29;11.30;99.90
25949;DHT22;13961;51.178;4.448;2024-01-30T01:16:55;11.30;99.90
25949;DHT22;13961;51.178;4.448;2024-01-30T01:19:21;11.30;99.90
25949;DHT22;13961;51.178;4.448;2024-01-30T01:21:47;11.30;99.90
25949;DHT22;13961;51.178;4.448;2024-01-30T01:24:13;11.30;99.90
25949;DHT22;13961;51.178;4.448;2024-01-30T01:26:39;11.30;99.90
25949;DHT22;13961;51.178;4.448;2024-01-30T01:29:06;11.40;99.90
25949;DHT22;13961;51.178;4.448;2024-01-30T01:31:38;11.40;99.90
25949;DHT22;13961;51.178;4.448;2024-01-30T01:34:11;11.40;99.90
25949;DHT22;13961;51.178;4.448;2024-01-30T01:36:37;11.30;99.90
25949;DHT22;13961;51.178;4.448;2024-01-30T01:39:03;11.30;99.90
25949;DHT22;13961;51.178;4.448;2024-01-30T01:41:32;11.30;99.90
25949;DHT22;13961;51.178;4.448;2024-01-30T01:43:59;11.20;99.90
25949;DHT22;13961;51.178;4.448;2024-01-30T01:46:30;11.20;99.90
25949;DHT22;13961;51.178;4.448;2024-01-30T01:48:57;11.20;99.90
25949;DHT22;13961;51.178;4.448;2024-01-30T01:51:24;11.20;99.90
25949;DHT22;13961;51.178;4.448;2024-01-30T01:53:53;11.20;99.90
25949;DHT22;13961;51.178;4.448;2024-01-30T01:56:19;11.30;99.90
25949;DHT22;13961;51.178;4.448;2024-01-30T01:58:46;11.20;99.90
25949;DHT22;13961;51.178;4.448;2024-01-30T02:01:13;11.30;99.90
25949;DHT22;13961;51.178;4.448;2024-01-30T02:03:40;11.20;99.90
25949;DHT22;13961;51.178;4.448;2024-01-30T02:06:06;11.20;99.90
25949;DHT22;13961;51.178;4.448;2024-01-30T02:08:32;11.30;99.90
25949;DHT22;13961;51.178;4.448;2024-01-30T02:10:59;11.20;99.90
25949;DHT22;13961;51.178;4.448;2024-01-30T02:13:25;11.20;99.90
25949;DHT22;13961;51.178;4.448;2024-01-30T02:15:51;11.10;99.90
25949;DHT22;13961;51.178;4.448;2024-01-30T02:18:17;11.00;99.90
25949;DHT22;13961;51.178;4.448;2024-01-30T02:20:43;11.00;99.90
25949;DHT22;13961;51.178;4.448;2024-01-30T02:23:10;11.00;99.90
25949;DHT22;13961;51.178;4.448;2024-01-30T02:25:40;11.10;99.90
25949;DHT22;13961;51.178;4.448;2024-01-30T02:28:13;11.10;99.90
25949;DHT22;13961;51.178;4.448;2024-01-30T02:30:39;11.00;99.90
25949;DHT22;13961;51.178;4.448;2024-01-30T02:33:05;10.90;99.90
25949;DHT22;13961;51.178;4.448;2024-01-30T02:35:31;10.80;99.90
25949;DHT22;13961;51.178;4.448;2024-01-30T02:37:57;10.90;99.90
25949;DHT22;13961;51.178;4.448;2024-01-30T02:40:22;11.00;99.90
25949;DHT22;13961;51.178;4.448;2024-01-30T02:42:48;11.00;99.90
25949;DHT22;13961;51.178;4.448;2024-01-30T02:45:14;11.00;99.90
25949;DHT22;13961;51.178;4.448;2024-01-30T02:47:40;11.00;99.90
25949;DHT22;13961;51.178;4.448;2024-01-30T02:50:06;11.00;99.90
25949;DHT22;13961;51.178;4.448;2024-01-30T02:52:32;11.10;99.90
25949;DHT22;13961;51.178;4.448;2024-01-30T02:54:57;11.20;99.90
25949;DHT22;13961;51.178;4.448;2024-01-30T02:57:23;11.20;99.90
25949;DHT22;13961;51.178;4.448;2024-01-30T02:59:49;11.30;99.90
25949;DHT22;13961;51.178;4.448;2024-01-30T03:02:14;11.30;99.90
25949;DHT22;13961;51.178;4.448;2024-01-30T03:04:43;11.40;99.90
25949;DHT22;13961;51.178;4.448;2024-01-30T03:07:09;11.20;99.90
25949;DHT22;13961;51.178;4.448;2024-01-30T03:09:36;11.20;99.90
25949;DHT22;13961;51.178;4.448;2024-01-30T03:12:03;11.20;99.90
25949;DHT22;13961;51.178;4.448;2024-01-30T03:14:31;11.30;99.90
25949;DHT22;13961;51.178;4.448;2024-01-30T03:16:57;11.30;99.90
25949;DHT22;13961;51.178;4.448;2024-01-30T03:19:23;11.40;99.90
25949;DHT22;13961;51.178;4.448;2024-01-30T03:21:49;11.50;99.90
25949;DHT22;13961;51.178;4.448;2024-01-30T03:24:14;11.50;99.90
25949;DHT22;13961;51.178;4.448;2024-01-30T03:26:40;11.60;99.90
25949;DHT22;13961;51.178;4.448;2024-01-30T03:29:06;11.60;99.90
25949;DHT22;13961;51.178;4.448;2024-01-30T03:31:31;11.60;99.90
25949;DHT22;13961;51.178;4.448;2024-01-30T03:33:57;11.60;99.90
25949;DHT22;13961;51.178;4.448;2024-01-30T03:36:23;11.50;99.90
25949;DHT22;13961;51.178;4.448;2024-01-30T03:38:49;11.50;99.90
25949;DHT22;13961;51.178;4.448;2024-01-30T03:41:14;11.60;99.90
25949;DHT22;13961;51.178;4.448;2024-01-30T03:43:40;11.60;99.90
25949;DHT22;13961;51.178;4.448;2024-01-30T03:46:06;11.70;99.90
25949;DHT22;13961;51.178;4.448;2024-01-30T03:48:32;11.60;99.90
25949;DHT22;13961;51.178;4.448;2024-01-30T03:50:57;11.50;99.90
25949;DHT22;13961;51.178;4.448;2024-01-30T03:53:23;11.60;99.90
25949;DHT22;13961;51.178;4.448;2024-01-30T03:55:49;11.70;99.90
25949;DHT22;13961;51.178;4.448;2024-01-30T03:58:15;11.80;99.90
25949;DHT22;13961;51.178;4.448;2024-01-30T04:00:40;11.80;99.90
25949;DHT22;13961;51.178;4.448;2024-01-30T04:03:06;11.70;99.90
25949;DHT22;13961;51.178;4.448;2024-01-30T04:05:33;11.70;99.90
25949;DHT22;13961;51.178;4.448;2024-01-30T04:07:59;11.70;99.90
25949;DHT22;13961;51.178;4.448;2024-01-30T04:10:25;11.70;99.90
25949;DHT22;13961;51.178;4.448;2024-01-30T04:12:51;11.60;99.90
25949;DHT22;13961;51.178;4.448;2024-01-30T04:15:19;11.60;99.90
25949;DHT22;13961;51.178;4.448;2024-01-30T04:17:45;11.50;99.90
25949;DHT22;13961;51.178;4.448;2024-01-30T04:20:17;11.60;99.90
25949;DHT22;13961;51.178;4.448;2024-01-30T04:22:46;11.70;99.90
25949;DHT22;13961;51.178;4.448;2024-01-30T04:25:13;11.80;99.90
25949;DHT22;13961;51.178;4.448;2024-01-30T04:27:39;11.80;99.90
25949;DHT22;13961;51.178;4.448;2024-01-30T04:30:05;11.70;99.90
25949;DHT22;13961;51.178;4.448;2024-01-30T04:32:32;11.80;99.90
25949;DHT22;13961;51.178;4.448;2024-01-30T04:34:57;11.80;99.90
25949;DHT22;13961;51.178;4.448;2024-01-30T04:37:23;11.70;99.90
25949;DHT22;13961;51.178;4.448;2024-01-30T04:39:49;11.70;99.90
25949;DHT22;13961;51.178;4.448;2024-01-30T04:42:14;11.80;99.90
25949;DHT22;13961;51.178;4.448;2024-01-30T04:44:40;11.70;99.90
25949;DHT22;13961;51.178;4.448;2024-01-30T04:47:06;11.60;99.90
25949;DHT22;13961;51.178;4.448;2024-01-30T04:49:34;11.80;99.90
25949;DHT22;13961;51.178;4.448;2024-01-30T04:52:00;11.80;99.90
25949;DHT22;13961;51.178;4.448;2024-01-30T04:54:26;11.70;99.90
25949;DHT22;13961;51.178;4.448;2024-01-30T04:56:51;11.80;99.90
25949;DHT22;13961;51.178;4.448;2024-01-30T04:59:17;11.80;99.90
25949;DHT22;13961;51.178;4.448;2024-01-30T05:01:42;11.80;99.90
25949;DHT22;13961;51.178;4.448;2024-01-30T05:04:10;11.80;99.90
25949;DHT22;13961;51.178;4.448;2024-01-30T05:06:36;11.70;99.90
25949;DHT22;13961;51.178;4.448;2024-01-30T05:09:02;11.70;99.90
25949;DHT22;13961;51.178;4.448;2024-01-30T05:11:30;11.60;99.90
25949;DHT22;13961;51.178;4.448;2024-01-30T05:13:56;11.70;99.90
25949;DHT22;13961;51.178;4.448;2024-01-30T05:16:22;11.90;99.90
25949;DHT22;13961;51.178;4.448;2024-01-30T05:18:47;11.90;99.90
25949;DHT22;13961;51.178;4.448;2024-01-30T05:21:13;11.80;99.90
25949;DHT22;13961;51.178;4.448;2024-01-30T05:23:39;11.70;99.90
25949;DHT22;13961;51.178;4.448;2024-01-30T05:26:05;11.80;99.90
25949;DHT22;13961;51.178;4.448;2024-01-30T05:28:31;11.80;99.90
25949;DHT22;13961;51.178;4.448;2024-01-30T05:30:57;11.90;99.90
25949;DHT22;13961;51.178;4.448;2024-01-30T05:33:22;12.10;99.90
25949;DHT22;13961;51.178;4.448;2024-01-30T05:35:48;11.90;99.90
25949;DHT22;13961;51.178;4.448;2024-01-30T05:38:15;11.90;99.90
25949;DHT22;13961;51.178;4.448;2024-01-30T05:40:41;11.90;99.90
25949;DHT22;13961;51.178;4.448;2024-01-30T05:43:07;11.80;99.90
25949;DHT22;13961;51.178;4.448;2024-01-30T05:45:33;11.80;99.90
25949;DHT22;13961;51.178;4.448;2024-01-30T05:48:00;11.90;99.90
25949;DHT22;13961;51.178;4.448;2024-01-30T05:50:26;11.90;99.90
25949;DHT22;13961;51.178;4.448;2024-01-30T05:52:52;11.90;99.90
25949;DHT22;13961;51.178;4.448;2024-01-30T05:55:18;11.80;99.90
25949;DHT22;13961;51.178;4.448;2024-01-30T05:57:44;11.90;99.90
25949;DHT22;13961;51.178;4.448;2024-01-30T06:00:10;12.00;99.90
25949;DHT22;13961;51.178;4.448;2024-01-30T06:02:36;11.90;99.90
25949;DHT22;13961;51.178;4.448;2024-01-30T06:05:01;11.90;99.90
25949;DHT22;13961;51.178;4.448;2024-01-30T06:07:27;12.00;99.90
25949;DHT22;13961;51.178;4.448;2024-01-30T06:09:53;12.10;99.90
25949;DHT22;13961;51.178;4.448;2024-01-30T06:12:18;12.00;99.90
25949;DHT22;13961;51.178;4.448;2024-01-30T06:14:44;11.90;99.90
25949;DHT22;13961;51.178;4.448;2024-01-30T06:17:10;11.90;99.90
25949;DHT22;13961;51.178;4.448;2024-01-30T06:19:37;11.90;99.90
25949;DHT22;13961;51.178;4.448;2024-01-30T06:22:04;11.90;99.90
25949;DHT22;13961;51.178;4.448;2024-01-30T06:24:30;11.90;99.90
25949;DHT22;13961;51.178;4.448;2024-01-30T06:26:55;11.80;99.90
25949;DHT22;13961;51.178;4.448;2024-01-30T06:29:21;11.70;99.90
25949;DHT22;13961;51.178;4.448;2024-01-30T06:31:47;11.80;99.90
25949;DHT22;13961;51.178;4.448;2024-01-30T06:34:12;11.90;99.90
25949;DHT22;13961;51.178;4.448;2024-01-30T06:36:38;11.80;99.90
25949;DHT22;13961;51.178;4.448;2024-01-30T06:39:04;11.80;99.90
25949;DHT22;13961;51.178;4.448;2024-01-30T06:41:30;11.90;99.90
25949;DHT22;13961;51.178;4.448;2024-01-30T06:43:56;12.00;99.90
25949;DHT22;13961;51.178;4.448;2024-01-30T06:46:22;12.10;99.90
25949;DHT22;13961;51.178;4.448;2024-01-30T06:48:48;11.90;99.90
25949;DHT22;13961;51.178;4.448;2024-01-30T06:51:13;11.90;99.90
25949;DHT22;13961;51.178;4.448;2024-01-30T06:53:39;12.00;99.90
25949;DHT22;13961;51.178;4.448;2024-01-30T06:56:05;12.00;99.90
25949;DHT22;13961;51.178;4.448;2024-01-30T06:58:31;12.00;99.90
25949;DHT22;13961;51.178;4.448;2024-01-30T07:00:58;12.00;99.90
25949;DHT22;13961;51.178;4.448;2024-01-30T07:03:24;11.90;99.90
25949;DHT22;13961;51.178;4.448;2024-01-30T07:05:49;12.00;99.90
25949;DHT22;13961;51.178;4.448;2024-01-30T07:08:18;12.10;99.90
25949;DHT22;13961;51.178;4.448;2024-01-30T07:10:44;12.20;99.90
25949;DHT22;13961;51.178;4.448;2024-01-30T07:16:15;12.00;99.90
25949;DHT22;13961;51.178;4.448;2024-01-30T07:18:41;12.00;99.90
25949;DHT22;13961;51.178;4.448;2024-01-30T07:21:06;12.10;99.90
25949;DHT22;13961;51.178;4.448;2024-01-30T07:23:32;12.10;99.90
25949;DHT22;13961;51.178;4.448;2024-01-30T07:25:59;12.20;99.90
25949;DHT22;13961;51.178;4.448;2024-01-30T07:28:25;12.10;99.90
25949;DHT22;13961;51.178;4.448;2024-01-30T07:30:50;12.00;99.90
25949;DHT22;13961;51.178;4.448;2024-01-30T07:33:16;12.00;99.90
25949;DHT22;13961;51.178;4.448;2024-01-30T07:35:42;12.10;99.90
25949;DHT22;13961;51.178;4.448;2024-01-30T07:38:07;12.10;99.90
25949;DHT22;13961;51.178;4.448;2024-01-30T07:40:33;12.00;99.90
25949;DHT22;13961;51.178;4.448;2024-01-30T07:42:59;12.10;99.90
25949;DHT22;13961;51.178;4.448;2024-01-30T07:45:24;12.10;99.90
25949;DHT22;13961;51.178;4.448;2024-01-30T07:47:51;12.00;99.90
25949;DHT22;13961;51.178;4.448;2024-01-30T07:50:17;12.00;99.90
25949;DHT22;13961;51.178;4.448;2024-01-30T07:52:43;11.90;99.90
25949;DHT22;13961;51.178;4.448;2024-01-30T07:55:09;12.00;99.90
25949;DHT22;13961;51.178;4.448;2024-01-30T07:57:35;12.20;99.90
25949;DHT22;13961;51.178;4.448;2024-01-30T08:00:01;12.20;99.90
25949;DHT22;13961;51.178;4.448;2024-01-30T08:02:28;12.20;99.90
25949;DHT22;13961;51.178;4.448;2024-01-30T08:04:54;12.10;99.90
25949;DHT22;13961;51.178;4.448;2024-01-30T08:07:19;12.10;99.90
25949;DHT22;13961;51.178;4.448;2024-01-30T08:09:47;12.20;99.90
25949;DHT22;13961;51.178;4.448;2024-01-30T08:12:13;12.30;99.90
25949;DHT22;13961;51.178;4.448;2024-01-30T08:14:39;12.20;99.90
25949;DHT22;13961;51.178;4.448;2024-01-30T08:17:06;12.20;99.90
25949;DHT22;13961;51.178;4.448;2024-01-30T08:19:33;12.20;99.90
25949;DHT22;13961;51.178;4.448;2024-01-30T08:21:58;12.20;99.90
25949;DHT22;13961;51.178;4.448;2024-01-30T08:24:24;12.20;99.90
25949;DHT22;13961;51.178;4.448;2024-01-30T08:26:50;12.20;99.90
25949;DHT22;13961;51.178;4.448;2024-01-30T08:29:15;12.30;99.90
25949;DHT22;13961;51.178;4.448;2024-01-30T08:31:41;12.30;99.90
25949;DHT22;13961;51.178;4.448;2024-01-30T08:34:06;12.30;99.90
25949;DHT22;13961;51.178;4.448;2024-01-30T08:36:32;12.50;99.90
25949;DHT22;13961;51.178;4.448;2024-01-30T08:38:58;12.50;99.90
25949;DHT22;13961;51.178;4.448;2024-01-30T08:41:24;12.40;99.90
25949;DHT22;13961;51.178;4.448;2024-01-30T08:43:49;12.30;99.90
25949;DHT22;13961;51.178;4.448;2024-01-30T08:46:18;12.40;99.90
25949;DHT22;13961;51.178;4.448;2024-01-30T08:48:43;12.30;99.90
25949;DHT22;13961;51.178;4.448;2024-01-30T08:51:09;12.40;99.90
25949;DHT22;13961;51.178;4.448;2024-01-30T08:53:36;12.50;99.90
25949;DHT22;13961;51.178;4.448;2024-01-30T08:56:02;12.40;99.90
25949;DHT22;13961;51.178;4.448;2024-01-30T08:58:28;12.30;99.90
25949;DHT22;13961;51.178;4.448;2024-01-30T09:00:54;12.40;99.90
25949;DHT22;13961;51.178;4.448;2024-01-30T09:03:19;12.40;99.90
25949;DHT22;13961;51.178;4.448;2024-01-30T09:05:45;12.40;99.90
25949;DHT22;13961;51.178;4.448;2024-01-30T09:08:11;12.50;99.90
25949;DHT22;13961;51.178;4.448;2024-01-30T09:10:36;12.50;99.90
25949;DHT22;13961;51.178;4.448;2024-01-30T09:13:02;12.60;99.90
25949;DHT22;13961;51.178;4.448;2024-01-30T09:15:28;12.60;99.90
25949;DHT22;13961;51.178;4.448;2024-01-30T09:17:54;12.50;99.90
25949;DHT22;13961;51.178;4.448;2024-01-30T09:20:19;12.50;99.90
25949;DHT22;13961;51.178;4.448;2024-01-30T09:22:47;12.50;99.90
25949;DHT22;13961;51.178;4.448;2024-01-30T09:25:13;12.50;99.90
25949;DHT22;13961;51.178;4.448;2024-01-30T09:27:39;12.50;99.90
25949;DHT22;13961;51.178;4.448;2024-01-30T09:30:06;12.50;99.90
25949;DHT22;13961;51.178;4.448;2024-01-30T09:32:32;12.40;99.90
25949;DHT22;13961;51.178;4.448;2024-01-30T09:34:57;12.50;99.90
25949;DHT22;13961;51.178;4.448;2024-01-30T09:37:23;12.70;99.90
25949;DHT22;13961;51.178;4.448;2024-01-30T09:39:48;12.50;99.90
25949;DHT22;13961;51.178;4.448;2024-01-30T09:42:26;12.50;99.90
25949;DHT22;13961;51.178;4.448;2024-01-30T09:44:53;12.50;99.90
25949;DHT22;13961;51.178;4.448;2024-01-30T09:47:19;12.40;99.90
25949;DHT22;13961;51.178;4.448;2024-01-30T09:49:44;12.40;99.90
25949;DHT22;13961;51.178;4.448;2024-01-30T09:52:11;12.50;99.90
25949;DHT22;13961;51.178;4.448;2024-01-30T09:54:38;12.40;99.90
25949;DHT22;13961;51.178;4.448;2024-01-30T09:57:04;12.30;99.90
25949;DHT22;13961;51.178;4.448;2024-01-30T09:59:30;12.40;99.90
25949;DHT22;13961;51.178;4.448;2024-01-30T10:01:56;12.30;99.90
25949;DHT22;13961;51.178;4.448;2024-01-30T10:04:22;12.30;99.90
25949;DHT22;13961;51.178;4.448;2024-01-30T10:06:48;12.40;99.90
25949;DHT22;13961;51.178;4.448;2024-01-30T10:09:14;12.60;99.90
25949;DHT22;13961;51.178;4.448;2024-01-30T10:11:40;12.70;99.90
25949;DHT22;13961;51.178;4.448;2024-01-30T10:14:06;12.70;99.90
25949;DHT22;13961;51.178;4.448;2024-01-30T10:16:31;12.70;99.90
25949;DHT22;13961;51.178;4.448;2024-01-30T10:18:57;12.80;99.90
25949;DHT22;13961;51.178;4.448;2024-01-30T10:21:23;12.60;99.90
25949;DHT22;13961;51.178;4.448;2024-01-30T10:23:49;12.50;99.90
25949;DHT22;13961;51.178;4.448;2024-01-30T10:26:16;12.50;99.90
25949;DHT22;13961;51.178;4.448;2024-01-30T10:28:43;12.50;99.90
25949;DHT22;13961;51.178;4.448;2024-01-30T10:31:08;12.50;99.90
25949;DHT22;13961;51.178;4.448;2024-01-30T10:33:34;12.50;99.90
25949;DHT22;13961;51.178;4.448;2024-01-30T10:36:04;12.30;99.90
25949;DHT22;13961;51.178;4.448;2024-01-30T10:38:32;12.20;99.90
25949;DHT22;13961;51.178;4.448;2024-01-30T10:40:59;12.20;99.90
25949;DHT22;13961;51.178;4.448;2024-01-30T10:43:32;12.10;99.90
25949;DHT22;13961;51.178;4.448;2024-01-30T10:46:20;11.90;99.90
25949;DHT22;13961;51.178;4.448;2024-01-30T10:48:58;11.90;99.90
25949;DHT22;13961;51.178;4.448;2024-01-30T10:51:27;11.80;99.90
25949;DHT22;13961;51.178;4.448;2024-01-30T10:53:53;11.80;99.90
25949;DHT22;13961;51.178;4.448;2024-01-30T10:56:24;11.80;99.90
25949;DHT22;13961;51.178;4.448;2024-01-30T10:58:51;11.70;99.90
25949;DHT22;13961;51.178;4.448;2024-01-30T11:01:21;11.90;99.90
25949;DHT22;13961;51.178;4.448;2024-01-30T11:03:53;11.70;99.90
25949;DHT22;13961;51.178;4.448;2024-01-30T11:06:23;11.60;99.90
25949;DHT22;13961;51.178;4.448;2024-01-30T11:09:03;11.60;99.90
25949;DHT22;13961;51.178;4.448;2024-01-30T11:11:57;11.50;99.90
25949;DHT22;13961;51.178;4.448;2024-01-30T11:14:29;11.50;99.90
25949;DHT22;13961;51.178;4.448;2024-01-30T11:16:58;11.60;99.90
25949;DHT22;13961;51.178;4.448;2024-01-30T11:19:25;11.60;99.90
25949;DHT22;13961;51.178;4.448;2024-01-30T11:21:55;12.10;99.90
25949;DHT22;13961;51.178;4.448;2024-01-30T11:24:23;12.40;99.90
25949;DHT22;13961;51.178;4.448;2024-01-30T11:26:54;12.60;99.90
25949;DHT22;13961;51.178;4.448;2024-01-30T11:29:24;12.90;99.90
25949;DHT22;13961;51.178;4.448;2024-01-30T11:31:54;12.90;99.90
25949;DHT22;13961;51.178;4.448;2024-01-30T11:34:21;12.50;99.90
25949;DHT22;13961;51.178;4.448;2024-01-30T11:37:03;12.40;99.90
25949;DHT22;13961;51.178;4.448;2024-01-30T11:39:32;12.00;99.90
25949;DHT22;13961;51.178;4.448;2024-01-30T11:41:58;12.40;99.90
25949;DHT22;13961;51.178;4.448;2024-01-30T11:44:24;12.70;99.90
25949;DHT22;13961;51.178;4.448;2024-01-30T11:46:52;12.70;99.90
25949;DHT22;13961;51.178;4.448;2024-01-30T11:49:18;12.60;99.90
25949;DHT22;13961;51.178;4.448;2024-01-30T11:51:47;12.60;99.90
25949;DHT22;13961;51.178;4.448;2024-01-30T11:54:15;12.50;99.90
25949;DHT22;13961;51.178;4.448;2024-01-30T11:56:42;12.40;99.90
25949;DHT22;13961;51.178;4.448;2024-01-30T11:59:08;12.40;99.90
25949;DHT22;13961;51.178;4.448;2024-01-30T12:01:34;12.40;99.90
25949;DHT22;13961;51.178;4.448;2024-01-30T12:04:00;12.50;99.90
25949;DHT22;13961;51.178;4.448;2024-01-30T12:06:26;12.60;99.90
25949;DHT22;13961;51.178;4.448;2024-01-30T12:09:02;12.60;99.90
25949;DHT22;13961;51.178;4.448;2024-01-30T12:11:43;12.80;99.90
25949;DHT22;13961;51.178;4.448;2024-01-30T12:14:09;12.70;99.90
25949;DHT22;13961;51.178;4.448;2024-01-30T12:16:35;12.40;99.90
25949;DHT22;13961;51.178;4.448;2024-01-30T12:19:01;12.30;99.90
25949;DHT22;13961;51.178;4.448;2024-01-30T12:21:28;12.50;99.90
25949;DHT22;13961;51.178;4.448;2024-01-30T12:23:54;12.40;99.90
25949;DHT22;13961;51.178;4.448;2024-01-30T12:26:19;12.50;99.90
25949;DHT22;13961;51.178;4.448;2024-01-30T12:28:49;12.40;99.90
25949;DHT22;13961;51.178;4.448;2024-01-30T12:31:17;12.20;99.90
25949;DHT22;13961;51.178;4.448;2024-01-30T12:33:43;12.30;99.90
25949;DHT22;13961;51.178;4.448;2024-01-30T12:36:09;12.50;99.90
25949;DHT22;13961;51.178;4.448;2024-01-30T12:38:34;12.50;99.90
25949;DHT22;13961;51.178;4.448;2024-01-30T12:41:00;12.50;99.90
25949;DHT22;13961;51.178;4.448;2024-01-30T12:43:26;12.50;99.90
25949;DHT22;13961;51.178;4.448;2024-01-30T12:45:55;12.40;99.90
25949;DHT22;13961;51.178;4.448;2024-01-30T12:48:20;12.40;99.90
25949;DHT22;13961;51.178;4.448;2024-01-30T12:50:46;12.20;99.90
25949;DHT22;13961;51.178;4.448;2024-01-30T12:53:12;12.30;99.90
25949;DHT22;13961;51.178;4.448;2024-01-30T12:55:38;12.20;99.90
25949;DHT22;13961;51.178;4.448;2024-01-30T12:58:04;12.10;99.90
25949;DHT22;13961;51.178;4.448;2024-01-30T13:00:29;12.10;99.90
25949;DHT22;13961;51.178;4.448;2024-01-30T13:02:55;11.90;99.90
25949;DHT22;13961;51.178;4.448;2024-01-30T13:05:21;11.90;99.90
25949;DHT22;13961;51.178;4.448;2024-01-30T13:07:47;11.70;99.90
25949;DHT22;13961;51.178;4.448;2024-01-30T13:10:13;11.80;99.90
25949;DHT22;13961;51.178;4.448;2024-01-30T13:12:38;11.80;99.90
25949;DHT22;13961;51.178;4.448;2024-01-30T13:15:04;11.70;99.90
25949;DHT22;13961;51.178;4.448;2024-01-30T13:17:32;11.70;99.90
25949;DHT22;13961;51.178;4.448;2024-01-30T13:19:58;11.60;99.90
25949;DHT22;13961;51.178;4.448;2024-01-30T13:22:24;11.30;99.90
25949;DHT22;13961;51.178;4.448;2024-01-30T13:24:50;11.30;99.90
25949;DHT22;13961;51.178;4.448;2024-01-30T13:27:16;11.20;99.90
25949;DHT22;13961;51.178;4.448;2024-01-30T13:29:42;11.20;99.90
25949;DHT22;13961;51.178;4.448;2024-01-30T13:32:07;11.00;99.90
25949;DHT22;13961;51.178;4.448;2024-01-30T13:34:33;11.10;99.90
25949;DHT22;13961;51.178;4.448;2024-01-30T13:36:59;11.10;99.90
25949;DHT22;13961;51.178;4.448;2024-01-30T13:39:25;10.90;99.90
25949;DHT22;13961;51.178;4.448;2024-01-30T13:41:50;10.90;99.90
25949;DHT22;13961;51.178;4.448;2024-01-30T13:44:16;10.70;99.90
25949;DHT22;13961;51.178;4.448;2024-01-30T13:46:43;10.90;99.90
25949;DHT22;13961;51.178;4.448;2024-01-30T13:49:08;10.80;99.90
25949;DHT22;13961;51.178;4.448;2024-01-30T13:51:34;10.70;99.90
25949;DHT22;13961;51.178;4.448;2024-01-30T13:54:00;10.60;99.90
25949;DHT22;13961;51.178;4.448;2024-01-30T13:56:26;10.70;99.90
25949;DHT22;13961;51.178;4.448;2024-01-30T13:58:52;10.70;99.90
25949;DHT22;13961;51.178;4.448;2024-01-30T14:01:18;10.80;99.90
25949;DHT22;13961;51.178;4.448;2024-01-30T14:03:44;10.70;99.90
25949;DHT22;13961;51.178;4.448;2024-01-30T14:06:11;10.70;99.90
25949;DHT22;13961;51.178;4.448;2024-01-30T14:08:37;10.70;99.90
25949;DHT22;13961;51.178;4.448;2024-01-30T14:11:02;10.80;99.90
25949;DHT22;13961;51.178;4.448;2024-01-30T14:13:28;10.70;99.90
25949;DHT22;13961;51.178;4.448;2024-01-30T14:15:55;10.70;99.90
25949;DHT22;13961;51.178;4.448;2024-01-30T14:18:21;10.60;99.90
25949;DHT22;13961;51.178;4.448;2024-01-30T14:20:47;10.60;99.90
25949;DHT22;13961;51.178;4.448;2024-01-30T14:23:12;10.70;99.90
25949;DHT22;13961;51.178;4.448;2024-01-30T14:25:38;10.60;99.90
25949;DHT22;13961;51.178;4.448;2024-01-30T14:28:04;10.50;99.90
25949;DHT22;13961;51.178;4.448;2024-01-30T14:30:29;10.40;99.90
25949;DHT22;13961;51.178;4.448;2024-01-30T14:32:55;10.40;99.90
25949;DHT22;13961;51.178;4.448;2024-01-30T14:35:21;10.40;99.90
25949;DHT22;13961;51.178;4.448;2024-01-30T14:37:47;10.40;99.90
25949;DHT22;13961;51.178;4.448;2024-01-30T14:40:12;10.40;99.90
25949;DHT22;13961;51.178;4.448;2024-01-30T14:42:38;10.40;99.90
25949;DHT22;13961;51.178;4.448;2024-01-30T14:45:05;10.60;99.90
25949;DHT22;13961;51.178;4.448;2024-01-30T14:47:31;10.60;99.90
25949;DHT22;13961;51.178;4.448;2024-01-30T14:49:57;10.40;99.90
25949;DHT22;13961;51.178;4.448;2024-01-30T14:52:24;10.30;99.90
25949;DHT22;13961;51.178;4.448;2024-01-30T14:54:49;10.10;99.90
25949;DHT22;13961;51.178;4.448;2024-01-30T14:57:15;10.10;99.90
25949;DHT22;13961;51.178;4.448;2024-01-30T14:59:41;10.10;99.90
25949;DHT22;13961;51.178;4.448;2024-01-30T15:02:07;10.20;99.90
25949;DHT22;13961;51.178;4.448;2024-01-30T15:04:33;10.10;99.90
25949;DHT22;13961;51.178;4.448;2024-01-30T15:06:58;10.00;99.90
25949;DHT22;13961;51.178;4.448;2024-01-30T15:09:24;10.00;99.90
25949;DHT22;13961;51.178;4.448;2024-01-30T15:11:52;10.10;99.90
25949;DHT22;13961;51.178;4.448;2024-01-30T15:14:17;10.10;99.90
25949;DHT22;13961;51.178;4.448;2024-01-30T15:16:43;10.00;99.90
25949;DHT22;13961;51.178;4.448;2024-01-30T15:19:09;10.10;99.90
25949;DHT22;13961;51.178;4.448;2024-01-30T15:21:35;10.20;99.90
25949;DHT22;13961;51.178;4.448;2024-01-30T15:24:01;10.20;99.90
25949;DHT22;13961;51.178;4.448;2024-01-30T15:26:27;10.20;99.90
25949;DHT22;13961;51.178;4.448;2024-01-30T15:28:53;10.10;99.90